Startpagina
METAR-TAF:

METAR-TAF

Vliegvelden :

Luchthaven Houari Boumedienne

Algiers, Algerije

breedte: 36-43N, lengte: 003-15E, hoogte: 25 m

Actueel weer

Dit bericht is 36 minuten geleden gemaakt, om 08:30 UTC
Wind 7 kt uit het oosten
Temperatuur 24°C
Vochtigheid 65%
Druk 1018 hPa
Zicht 10 km of meer
geen wolken onder 1500 m en geen cumulonimbus

METAR: DAAG 200830Z 09007KT CAVOK 24/17 Q1018

Tijdstip: 10:06 (09:06 UTC)

Verwachting

Dit bericht is 4 uur en het 6 minuten geleden gemaakt, om 05:00 UTC
Verwachting geldig van 20 om 06 UTC tot 21 om 06 UTC
Wind 8 kt uit het oostnoordoosten
Zicht 10 km of meer
Weinig wolken op 2000 ft
Kans 40% :
Tijdelijke
van 20 om 06 UTC tot 20 om 08 UTC
Zicht: 5000 m
nevel
Tijdelijke
van 20 om 12 UTC tot 20 om 18 UTC
Wind 18 kt uit het oostnoordoosten
Kans 30% :
Tijdelijke
van 21 om 02 UTC tot 21 om 06 UTC
Zicht: 5000 m
nevel

TAF: DAAG 200500Z 2006/2106 06008KT 9999 FEW020 PROB40 TEMPO 2006/2008 5000 BR TEMPO 2012/2018 06018KT PROB30 TEMPO 2102/2106 5000 BR

Waarnemingen en weersverwachtingen van meer dan 4000 vliegvelden (METAR en TAF).

De beschikbare stations zijn de gele en rode punten op de kaart.

Ga met uw muis naar het station om de naam te zien.

Klik dan om waarnemingen en weersverwachtingen te zien.

kaart wijzigen: klik op de groene knoppen met een zwart kruis om in te zoomen, op de groene knop met een streepje om uit te zoomen of op de groene pijlen voor aangrenzende kaarten.


METAR-TAF: